Amanda, Ohio
Current Conditions -  °F | °C
As of 7:53 AM on Wednesday 26 Nov 2014 (Local Time) from KLHQ Reporting Station
Haze Haze  
Wind Chill: 30°   Ceiling: 3000
Heat Index: 30°   Visibility: 6mi
Dew Point: 26°   Wind: 3mph
Humidity: 85%   Direction: 340°NNW
Pressure: 30.1"   Gusts: NA
Location:  39.65°N, 82.74°W
Report Text: KLHQ 261253Z AUTO 34003KT 6SM BR BKN030 M01/M03 A3010 RMK AO2 SLP200 T10111033
Loading
Personal Weather Stations






























Interactive Weather Map New forecast layout! Learn more

10-Day Weather Forecast

Advertisements
Track Severe Weather on mobile